Time;durP1;ratioP1;P1;durP2;ratioP2;P2;SDS_P1;SDS_P2;PMS_P1;PMS_P2;Temp;Humidity;BMP_temperature;BMP_pressure;BME280_temperature;BME280_humidity;BME280_pressure;Samples;Min_cycle;Max_cycle;Signal;HPM_P1;HPM_P2
2022/12/09 00:01:36;;;;;;;0.70;0.70;;;3.40;99.90;;;;;;5014470;27;20051;-80
2022/12/09 00:04:02;;;;;;;0.70;0.70;;;3.50;99.90;;;;;;5032084;27;20051;-81
2022/12/09 00:06:29;;;;;;;0.70;0.70;;;3.40;99.90;;;;;;4993425;27;20057;-81
2022/12/09 00:08:56;;;;;;;0.70;0.70;;;3.20;99.90;;;;;;5015812;27;20051;-81
2022/12/09 00:11:22;;;;;;;0.70;0.70;;;3.30;99.90;;;;;;5012002;27;20379;-81
2022/12/09 00:13:49;;;;;;;0.70;0.70;;;3.20;99.90;;;;;;5038391;27;21055;-80
2022/12/09 00:16:16;;;;;;;0.70;0.70;;;3.30;99.90;;;;;;5031473;27;20822;-81
2022/12/09 00:18:42;;;;;;;0.70;0.70;;;3.40;99.90;;;;;;5009057;27;20047;-81
2022/12/09 00:21:29;;;;;;;0.63;0.63;;;3.40;99.90;;;;;;5010694;27;20515;-80
2022/12/09 00:23:57;;;;;;;0.70;0.70;;;3.50;99.90;;;;;;5035079;27;20905;-80
2022/12/09 00:26:25;;;;;;;0.70;0.70;;;3.60;99.90;;;;;;4994413;27;20086;-81
2022/12/09 00:28:52;;;;;;;0.70;0.70;;;3.50;99.90;;;;;;4991628;27;20055;-81
2022/12/09 00:31:23;;;;;;;0.70;0.70;;;3.50;99.90;;;;;;5016626;27;20841;-80
2022/12/09 00:33:50;;;;;;;0.70;0.70;;;3.60;99.90;;;;;;5029537;27;20039;-80
2022/12/09 00:36:18;;;;;;;0.70;0.70;;;3.50;99.90;;;;;;5013761;27;20078;-81
2022/12/09 00:38:45;;;;;;;0.70;0.70;;;3.40;99.90;;;;;;5018851;27;20141;-80
2022/12/09 00:41:12;;;;;;;0.70;0.70;;;3.50;99.90;;;;;;4993396;27;20107;-80
2022/12/09 00:43:39;;;;;;;0.70;0.70;;;3.30;99.90;;;;;;5037851;27;20579;-80
2022/12/09 00:46:05;;;;;;;0.70;0.70;;;3.30;99.90;;;;;;5038069;27;20267;-80
2022/12/09 00:48:33;;;;;;;0.70;0.70;;;3.30;99.90;;;;;;5040239;27;20042;-79
2022/12/09 00:51:00;;;;;;;0.70;0.70;;;3.40;99.90;;;;;;5030796;27;20116;-81
2022/12/09 00:53:26;;;;;;;0.70;0.70;;;3.20;99.90;;;;;;4998145;27;20043;-81
2022/12/09 00:55:52;;;;;;;0.70;0.70;;;3.40;99.90;;;;;;5016607;27;20180;-81
2022/12/09 00:58:18;;;;;;;0.70;0.70;;;3.50;99.90;;;;;;5014014;27;20146;-80
2022/12/09 01:00:44;;;;;;;0.80;0.80;;;3.60;99.90;;;;;;5017715;27;20042;-80
2022/12/09 01:03:13;;;;;;;0.70;0.70;;;3.30;99.90;;;;;;5016997;28;20050;-80
2022/12/09 01:05:39;;;;;;;0.70;0.70;;;3.20;99.90;;;;;;5021178;27;20055;-80
2022/12/09 01:08:05;;;;;;;0.70;0.70;;;3.30;99.90;;;;;;5017166;28;20051;-81
2022/12/09 01:10:33;;;;;;;0.70;0.70;;;3.40;99.90;;;;;;5024131;28;20737;-81
2022/12/09 01:12:59;;;;;;;0.70;0.70;;;3.40;99.90;;;;;;5021935;28;20031;-80
2022/12/09 01:15:25;;;;;;;0.70;0.70;;;3.30;99.90;;;;;;5019874;28;20132;-80
2022/12/09 01:17:50;;;;;;;0.63;0.63;;;3.30;99.90;;;;;;5026981;28;20047;-80
2022/12/09 01:20:16;;;;;;;0.70;0.70;;;3.30;99.90;;;;;;5013763;28;20484;-81
2022/12/09 01:22:42;;;;;;;0.70;0.70;;;3.50;99.90;;;;;;5014915;28;20576;-80
2022/12/09 01:25:11;;;;;;;0.70;0.70;;;3.50;99.90;;;;;;5003407;28;20053;-81
2022/12/09 01:27:36;;;;;;;0.70;0.70;;;3.30;99.90;;;;;;5003872;28;20830;-80
2022/12/09 01:30:03;;;;;;;0.68;0.68;;;3.20;99.90;;;;;;5033943;27;20043;-80
2022/12/09 01:32:29;;;;;;;0.70;0.70;;;3.40;99.90;;;;;;5015784;28;20525;-82
2022/12/09 01:34:54;;;;;;;0.65;0.65;;;3.30;99.90;;;;;;4995617;28;20104;-81
2022/12/09 01:37:20;;;;;;;0.70;0.70;;;3.20;99.90;;;;;;5019448;28;20055;-81
2022/12/09 01:39:46;;;;;;;0.70;0.70;;;3.40;99.90;;;;;;5014492;28;20051;-81
2022/12/09 01:42:21;;;;;;;0.70;0.70;;;3.40;99.90;;;;;;4996188;28;20100;-81
2022/12/09 01:45:21;;;;;;;0.70;0.70;;;3.50;99.90;;;;;;5017976;28;20055;-81
2022/12/09 01:47:50;;;;;;;0.70;0.70;;;3.50;99.90;;;;;;5016996;28;20152;-81
2022/12/09 01:50:17;;;;;;;0.70;0.70;;;3.20;99.90;;;;;;5025979;28;20043;-81
2022/12/09 01:52:44;;;;;;;0.70;0.70;;;3.30;99.90;;;;;;5017313;27;20158;-79
2022/12/09 01:55:11;;;;;;;0.70;0.70;;;3.30;99.90;;;;;;5044846;27;20039;-81
2022/12/09 01:57:37;;;;;;;0.70;0.70;;;3.40;99.90;;;;;;5017217;27;20058;-81
2022/12/09 02:00:04;;;;;;;0.68;0.68;;;3.40;99.90;;;;;;5022906;27;20050;-81
2022/12/09 02:02:31;;;;;;;0.70;0.70;;;3.40;99.90;;;;;;5001912;27;20043;-81
2022/12/09 02:04:57;;;;;;;0.70;0.70;;;3.50;99.90;;;;;;5019386;27;20122;-81
2022/12/09 02:07:23;;;;;;;0.70;0.70;;;3.50;99.90;;;;;;5014143;27;20119;-80
2022/12/09 02:09:51;;;;;;;0.70;0.70;;;3.30;99.90;;;;;;5039789;27;20558;-81
2022/12/09 02:12:29;;;;;;;0.70;0.70;;;3.20;99.90;;;;;;5021954;27;20210;-81
2022/12/09 02:15:02;;;;;;;0.70;0.70;;;3.20;99.90;;;;;;5021059;27;20057;-81
2022/12/09 02:17:37;;;;;;;0.70;0.70;;;3.40;99.90;;;;;;5038744;27;20051;-80
2022/12/09 02:20:23;;;;;;;0.63;0.63;;;3.30;99.90;;;;;;5017170;27;20798;-81
2022/12/09 02:23:10;;;;;;;0.70;0.70;;;3.30;99.90;;;;;;5019372;27;20047;-82
2022/12/09 02:26:00;;;;;;;0.70;0.70;;;3.20;99.90;;;;;;5024188;27;20500;-80
2022/12/09 02:28:29;;;;;;;0.65;0.65;;;3.20;99.90;;;;;;5033250;27;20074;-80
2022/12/09 02:31:07;;;;;;;0.70;0.70;;;3.20;99.90;;;;;;5015992;27;20043;-80
2022/12/09 02:34:11;;;;;;;0.60;0.60;;;3.20;99.90;;;;;;5023313;27;20051;-80
2022/12/09 02:36:51;;;;;;;0.70;0.70;;;3.10;99.90;;;;;;5017223;27;20780;-81
2022/12/09 02:39:23;;;;;;;0.70;0.70;;;3.10;99.90;;;;;;5024666;27;20674;-81
2022/12/09 02:41:53;;;;;;;0.60;0.60;;;3.00;99.90;;;;;;5021397;27;20527;-80
2022/12/09 02:44:24;;;;;;;0.60;0.60;;;3.00;99.90;;;;;;5015962;27;20043;-81
2022/12/09 02:46:52;;;;;;;0.70;0.70;;;3.10;99.90;;;;;;5034667;27;20082;-80
2022/12/09 02:49:20;;;;;;;0.70;0.70;;;3.10;99.90;;;;;;5015273;27;20047;-79
2022/12/09 02:51:48;;;;;;;0.70;0.70;;;3.00;99.90;;;;;;5040965;27;20828;-79
2022/12/09 02:54:16;;;;;;;0.70;0.70;;;3.00;99.90;;;;;;5021317;27;20539;-80
2022/12/09 02:56:55;;;;;;;0.70;0.70;;;2.90;99.90;;;;;;5023410;27;20172;-82
2022/12/09 02:59:21;;;;;;;0.60;0.60;;;2.90;99.90;;;;;;5027389;27;20655;-81
2022/12/09 03:02:09;;;;;;;0.70;0.70;;;2.80;99.90;;;;;;5020510;27;20039;-81
2022/12/09 03:04:37;;;;;;;0.70;0.70;;;2.70;99.90;;;;;;5017437;27;20273;-81
2022/12/09 03:07:25;;;;;;;0.70;0.70;;;2.70;99.90;;;;;;5014453;27;20665;-82
2022/12/09 03:10:05;;;;;;;0.70;0.70;;;2.80;99.90;;;;;;5002189;27;20537;-81
2022/12/09 03:12:33;;;;;;;0.70;0.70;;;2.60;99.90;;;;;;5023933;27;20318;-81
2022/12/09 03:15:01;;;;;;;0.70;0.70;;;2.80;99.90;;;;;;5040404;27;20669;-81
2022/12/09 03:17:34;;;;;;;0.70;0.70;;;2.70;99.90;;;;;;5037160;27;20051;-81
2022/12/09 03:20:05;;;;;;;0.68;0.68;;;2.70;99.90;;;;;;5014991;27;20050;-81
2022/12/09 03:22:34;;;;;;;0.70;0.70;;;2.70;99.90;;;;;;4999335;27;20838;-81
2022/12/09 03:25:09;;;;;;;0.70;0.70;;;2.50;99.90;;;;;;5066815;27;20427;-81
2022/12/09 03:27:49;;;;;;;0.70;0.70;;;2.50;99.90;;;;;;5002968;27;20059;-81
2022/12/09 03:30:16;;;;;;;0.70;0.70;;;2.50;99.90;;;;;;5021405;27;20051;-81
2022/12/09 03:32:44;;;;;;;0.70;0.70;;;2.50;99.90;;;;;;5017778;27;20039;-81
2022/12/09 03:35:36;;;;;;;0.70;0.70;;;2.50;99.90;;;;;;5023995;27;20047;-81
2022/12/09 03:38:05;;;;;;;0.70;0.70;;;2.50;99.90;;;;;;5028128;27;20051;-81
2022/12/09 03:40:32;;;;;;;0.60;0.60;;;2.40;99.90;;;;;;5013590;27;20081;-81
2022/12/09 03:43:07;;;;;;;0.60;0.60;;;2.40;99.90;;;;;;5016032;27;20817;-81
2022/12/09 03:45:33;;;;;;;0.70;0.70;;;2.40;99.90;;;;;;5036595;27;20056;-81
2022/12/09 03:48:01;;;;;;;0.70;0.70;;;2.40;99.90;;;;;;5018436;27;20946;-81
2022/12/09 03:50:33;;;;;;;0.70;0.70;;;2.40;99.90;;;;;;5017491;27;20527;-81
2022/12/09 03:53:08;;;;;;;0.70;0.70;;;2.50;99.90;;;;;;5016659;27;20922;-81
2022/12/09 03:56:03;;;;;;;0.63;0.63;;;2.50;99.90;;;;;;5022530;27;20051;-81
2022/12/09 03:58:33;;;;;;;0.70;0.70;;;2.50;99.90;;;;;;4999031;27;20170;-81
2022/12/09 04:01:01;;;;;;;0.60;0.60;;;2.40;99.90;;;;;;5020759;27;20491;-80
2022/12/09 04:03:26;;;;;;;0.60;0.60;;;2.50;99.90;;;;;;5025458;27;20112;-80
2022/12/09 04:05:52;;;;;;;0.68;0.68;;;2.60;99.90;;;;;;5016385;27;20051;-80
2022/12/09 04:08:18;;;;;;;0.60;0.60;;;2.60;99.90;;;;;;4999996;27;20046;-81
2022/12/09 04:10:44;;;;;;;0.60;0.60;;;2.60;99.90;;;;;;5005308;27;20043;-80
2022/12/09 04:13:10;;;;;;;0.68;0.68;;;2.60;99.90;;;;;;5017207;27;20039;-81
2022/12/09 04:15:35;;;;;;;0.60;0.60;;;2.40;99.90;;;;;;5019768;27;20042;-80
2022/12/09 04:18:01;;;;;;;0.60;0.60;;;2.30;99.90;;;;;;5015475;27;20054;-80
2022/12/09 04:20:27;;;;;;;0.70;0.70;;;2.40;99.90;;;;;;5013956;27;20073;-80
2022/12/09 04:22:54;;;;;;;0.60;0.60;;;2.50;99.90;;;;;;5015007;27;20462;-81
2022/12/09 04:25:20;;;;;;;0.60;0.60;;;2.50;99.90;;;;;;5016120;27;20909;-80
2022/12/09 04:27:46;;;;;;;0.60;0.60;;;2.50;99.90;;;;;;5020680;27;20047;-80
2022/12/09 04:30:12;;;;;;;0.70;0.70;;;2.50;99.90;;;;;;5014390;27;20502;-80
2022/12/09 04:32:38;;;;;;;0.60;0.60;;;2.50;99.90;;;;;;5017417;27;20035;-79
2022/12/09 04:35:04;;;;;;;0.60;0.60;;;2.50;99.90;;;;;;5020056;27;20242;-80
2022/12/09 04:37:30;;;;;;;0.60;0.60;;;2.50;99.90;;;;;;5039486;27;20047;-80
2022/12/09 04:39:55;;;;;;;0.60;0.60;;;2.40;99.90;;;;;;5000780;28;20229;-80
2022/12/09 04:42:21;;;;;;;0.70;0.70;;;2.50;99.90;;;;;;4977844;28;20047;-80
2022/12/09 04:44:47;;;;;;;0.60;0.60;;;2.50;99.90;;;;;;4978195;28;20055;-81
2022/12/09 04:47:13;;;;;;;0.60;0.60;;;2.50;99.90;;;;;;5000884;28;20860;-79
2022/12/09 04:49:38;;;;;;;0.65;0.65;;;2.50;99.90;;;;;;5000621;28;20500;-79
2022/12/09 04:52:04;;;;;;;0.70;0.70;;;2.60;99.90;;;;;;4994904;28;20044;-79
2022/12/09 04:54:31;;;;;;;0.68;0.68;;;2.60;99.90;;;;;;4990343;28;20139;-80
2022/12/09 04:56:57;;;;;;;0.65;0.65;;;2.60;99.90;;;;;;4971238;28;20083;-80
2022/12/09 04:59:23;;;;;;;0.70;0.70;;;2.60;99.90;;;;;;4973115;28;20399;-80
2022/12/09 05:01:49;;;;;;;0.70;0.70;;;2.50;99.90;;;;;;4976232;28;20083;-80
2022/12/09 05:04:14;;;;;;;0.70;0.70;;;2.50;99.90;;;;;;4987989;28;20517;-80
2022/12/09 05:06:40;;;;;;;0.70;0.70;;;2.50;99.90;;;;;;4989807;28;20071;-81
2022/12/09 05:09:11;;;;;;;0.70;0.70;;;2.50;99.90;;;;;;4992308;28;20522;-82
2022/12/09 05:11:37;;;;;;;0.70;0.70;;;2.50;99.90;;;;;;4992910;28;20059;-80
2022/12/09 05:14:03;;;;;;;0.70;0.70;;;2.60;99.90;;;;;;4997744;28;20052;-81
2022/12/09 05:16:28;;;;;;;0.70;0.70;;;2.60;99.90;;;;;;4988199;28;20036;-81
2022/12/09 05:18:54;;;;;;;0.70;0.70;;;2.70;99.90;;;;;;4987320;28;20120;-80
2022/12/09 05:21:20;;;;;;;0.60;0.60;;;2.70;99.90;;;;;;4986503;28;20409;-81
2022/12/09 05:23:47;;;;;;;0.60;0.60;;;2.60;99.90;;;;;;4985755;28;20832;-80
2022/12/09 05:26:15;;;;;;;0.70;0.70;;;2.60;99.90;;;;;;4974189;28;20082;-80
2022/12/09 05:28:41;;;;;;;0.68;0.68;;;2.60;99.90;;;;;;4978474;28;20059;-80
2022/12/09 05:31:16;;;;;;;0.70;0.70;;;2.50;99.90;;;;;;4991087;28;20771;-81
2022/12/09 05:33:43;;;;;;;0.70;0.70;;;2.50;99.90;;;;;;4976730;28;20052;-81
2022/12/09 05:36:14;;;;;;;0.70;0.70;;;2.50;99.90;;;;;;4961580;28;20052;-82
2022/12/09 05:38:40;;;;;;;0.70;0.70;;;2.60;99.90;;;;;;4977054;28;20957;-81
2022/12/09 05:41:06;;;;;;;0.70;0.70;;;2.60;99.90;;;;;;5015980;28;20055;-81
2022/12/09 05:43:33;;;;;;;0.70;0.70;;;2.60;99.90;;;;;;5017811;27;20436;-81
2022/12/09 05:46:00;;;;;;;0.70;0.70;;;2.70;99.90;;;;;;5014790;27;20446;-81
2022/12/09 05:48:26;;;;;;;0.70;0.70;;;2.70;99.90;;;;;;5017198;27;20050;-79
2022/12/09 05:50:59;;;;;;;0.70;0.70;;;2.60;99.90;;;;;;5002729;27;20054;-79
2022/12/09 05:53:25;;;;;;;0.70;0.70;;;2.70;99.90;;;;;;5025563;27;20047;-79
2022/12/09 05:55:51;;;;;;;0.70;0.70;;;2.60;99.90;;;;;;5025446;27;20075;-80
2022/12/09 05:58:17;;;;;;;0.70;0.70;;;2.50;99.90;;;;;;5015664;27;20584;-79
2022/12/09 06:00:43;;;;;;;0.70;0.70;;;2.60;99.90;;;;;;5034719;27;20055;-79
2022/12/09 06:03:09;;;;;;;0.70;0.70;;;2.50;99.90;;;;;;5041184;27;20058;-79
2022/12/09 06:05:36;;;;;;;0.70;0.70;;;2.50;99.90;;;;;;5019695;27;20054;-79
2022/12/09 06:08:04;;;;;;;0.70;0.70;;;2.40;99.90;;;;;;5032449;27;20471;-79
2022/12/09 06:10:30;;;;;;;0.70;0.70;;;2.40;99.90;;;;;;5011692;27;20556;-79
2022/12/09 06:12:56;;;;;;;0.73;0.73;;;2.50;99.90;;;;;;5015320;27;20051;-80
2022/12/09 06:15:23;;;;;;;0.70;0.70;;;2.60;99.90;;;;;;5016467;27;20486;-81
2022/12/09 06:17:49;;;;;;;0.70;0.70;;;2.60;99.90;;;;;;5015653;27;20995;-81
2022/12/09 06:20:16;;;;;;;0.70;0.70;;;2.60;99.90;;;;;;5020942;27;20436;-80
2022/12/09 06:22:42;;;;;;;0.70;0.70;;;2.60;99.90;;;;;;5011516;27;20051;-80
2022/12/09 06:25:08;;;;;;;0.70;0.70;;;2.60;99.90;;;;;;5011179;27;20504;-81
2022/12/09 06:27:34;;;;;;;0.70;0.70;;;2.60;99.90;;;;;;5034625;27;20666;-81
2022/12/09 06:30:01;;;;;;;0.70;0.70;;;2.40;99.90;;;;;;5015377;27;20053;-81
2022/12/09 06:32:28;;;;;;;0.70;0.70;;;2.40;99.90;;;;;;5009590;27;20336;-80
2022/12/09 06:34:54;;;;;;;0.70;0.70;;;2.30;99.90;;;;;;5008588;27;20061;-80
2022/12/09 06:37:20;;;;;;;0.60;0.60;;;2.20;99.90;;;;;;5010969;27;20904;-81
2022/12/09 06:39:46;;;;;;;0.65;0.65;;;2.00;99.90;;;;;;5020845;28;20595;-80
2022/12/09 06:42:12;;;;;;;0.70;0.70;;;1.90;99.90;;;;;;5011488;28;20670;-81
2022/12/09 06:44:39;;;;;;;0.70;0.70;;;2.00;99.90;;;;;;5003344;28;20043;-81
2022/12/09 06:47:05;;;;;;;0.70;0.70;;;1.90;99.90;;;;;;5020075;28;20302;-81
2022/12/09 06:49:31;;;;;;;0.70;0.70;;;1.80;99.90;;;;;;5006845;27;20413;-80
2022/12/09 06:51:57;;;;;;;1.55;1.50;;;1.70;99.90;;;;;;4999207;28;20412;-80
2022/12/09 06:54:23;;;;;;;0.70;0.70;;;1.70;99.90;;;;;;5011195;28;20048;-81
2022/12/09 06:56:49;;;;;;;0.70;0.70;;;1.70;99.90;;;;;;4997739;28;20047;-79
2022/12/09 06:59:15;;;;;;;0.70;0.70;;;1.70;99.90;;;;;;5010890;28;20446;-80
2022/12/09 07:01:41;;;;;;;0.70;0.70;;;1.60;99.90;;;;;;5015244;28;20556;-80
2022/12/09 07:04:09;;;;;;;0.70;0.70;;;1.50;99.90;;;;;;5014933;28;20100;-81
2022/12/09 07:06:39;;;;;;;0.70;0.70;;;1.60;99.90;;;;;;5010505;28;20114;-80
2022/12/09 07:09:07;;;;;;;0.70;0.70;;;1.50;99.90;;;;;;5009577;28;20487;-79
2022/12/09 07:11:33;;;;;;;0.70;0.70;;;1.50;99.90;;;;;;5012149;28;20043;-81
2022/12/09 07:14:00;;;;;;;0.70;0.70;;;1.40;99.90;;;;;;5006045;28;20081;-81
2022/12/09 07:16:26;;;;;;;0.75;0.75;;;1.30;99.90;;;;;;5011466;28;20150;-80
2022/12/09 07:18:53;;;;;;;0.70;0.70;;;1.30;99.90;;;;;;5013975;28;20420;-80
2022/12/09 07:21:20;;;;;;;0.80;0.80;;;1.30;99.90;;;;;;5013348;28;20077;-80
2022/12/09 07:23:47;;;;;;;0.70;0.70;;;1.20;99.90;;;;;;5008632;28;20560;-81
2022/12/09 07:26:13;;;;;;;0.65;0.65;;;1.40;99.90;;;;;;5019436;28;20054;-80
2022/12/09 07:28:41;;;;;;;0.70;0.70;;;1.20;99.90;;;;;;5005542;28;20046;-80
2022/12/09 07:31:15;;;;;;;0.70;0.70;;;1.40;99.90;;;;;;5012317;28;20051;-80
2022/12/09 07:33:41;;;;;;;0.70;0.70;;;1.20;99.90;;;;;;5014563;28;20094;-80
2022/12/09 07:36:07;;;;;;;0.70;0.70;;;1.20;99.90;;;;;;5005654;28;20048;-80
2022/12/09 07:38:33;;;;;;;0.70;0.70;;;1.30;99.90;;;;;;4991173;28;20262;-81
2022/12/09 07:41:05;;;;;;;0.70;0.70;;;1.30;99.90;;;;;;4990999;28;20421;-81
2022/12/09 07:43:35;;;;;;;0.70;0.70;;;1.20;99.90;;;;;;5010472;28;20430;-82
2022/12/09 07:46:05;;;;;;;0.70;0.70;;;1.30;99.90;;;;;;5029141;28;20497;-80
2022/12/09 07:48:31;;;;;;;0.70;0.70;;;1.20;99.90;;;;;;5028283;28;20375;-80
2022/12/09 07:51:04;;;;;;;0.70;0.70;;;1.20;99.90;;;;;;5003599;28;20051;-80
2022/12/09 07:53:32;;;;;;;0.80;0.80;;;1.20;99.90;;;;;;5004520;28;20096;-80
2022/12/09 07:56:03;;;;;;;0.70;0.70;;;1.20;99.90;;;;;;5003867;28;20043;-81
2022/12/09 07:58:29;;;;;;;0.70;0.70;;;1.20;99.90;;;;;;5030756;28;20132;-81
2022/12/09 08:00:54;;;;;;;0.70;0.70;;;1.30;99.90;;;;;;5021224;28;20801;-80
2022/12/09 08:03:20;;;;;;;0.70;0.70;;;1.20;99.90;;;;;;5016554;28;20144;-80
2022/12/09 08:05:50;;;;;;;0.80;0.80;;;1.10;99.90;;;;;;5019937;28;20447;-80
2022/12/09 08:08:16;;;;;;;0.77;0.77;;;1.30;99.90;;;;;;5016465;28;20050;-81
2022/12/09 08:10:45;;;;;;;0.80;0.80;;;1.50;99.90;;;;;;5005873;28;20446;-81
2022/12/09 08:13:11;;;;;;;0.70;0.70;;;1.60;99.90;;;;;;5013774;28;20457;-81
2022/12/09 08:15:37;;;;;;;0.70;0.70;;;1.60;99.90;;;;;;5014701;28;20054;-81
2022/12/09 08:18:03;;;;;;;0.70;0.70;;;1.50;99.90;;;;;;4991104;28;20055;-80
2022/12/09 08:20:29;;;;;;;0.70;0.70;;;1.70;99.90;;;;;;5013737;28;20039;-81
2022/12/09 08:22:55;;;;;;;0.70;0.70;;;1.80;99.90;;;;;;4994145;28;20043;-81
2022/12/09 08:25:21;;;;;;;0.70;0.70;;;1.80;99.90;;;;;;5011034;28;20492;-81
2022/12/09 08:27:46;;;;;;;0.68;0.68;;;1.80;99.90;;;;;;5014878;28;20774;-81
2022/12/09 08:30:12;;;;;;;0.70;0.70;;;2.00;99.90;;;;;;4991674;28;20086;-82
2022/12/09 08:32:38;;;;;;;0.70;0.70;;;2.10;99.90;;;;;;5010075;28;20436;-81
2022/12/09 08:35:04;;;;;;;0.70;0.70;;;2.20;99.90;;;;;;4985905;28;20052;-80
2022/12/09 08:37:30;;;;;;;0.70;0.70;;;2.00;99.90;;;;;;5017204;28;20135;-81
2022/12/09 08:39:56;;;;;;;0.70;0.70;;;2.10;99.90;;;;;;4988420;28;20056;-81
2022/12/09 08:42:22;;;;;;;0.70;0.70;;;2.10;99.90;;;;;;5022732;28;20555;-81
2022/12/09 08:44:49;;;;;;;0.70;0.70;;;2.10;99.90;;;;;;5025648;28;20158;-80
2022/12/09 08:47:15;;;;;;;0.70;0.70;;;2.10;99.90;;;;;;5020101;28;20405;-80
2022/12/09 08:49:41;;;;;;;0.70;0.70;;;2.30;99.90;;;;;;5015165;28;20125;-80
2022/12/09 08:52:07;;;;;;;0.70;0.70;;;2.20;99.90;;;;;;5011996;28;20127;-80
2022/12/09 08:54:33;;;;;;;0.70;0.70;;;2.30;99.90;;;;;;5015439;28;20051;-80
2022/12/09 08:56:59;;;;;;;0.70;0.70;;;2.50;99.90;;;;;;5010099;28;20138;-81
2022/12/09 08:59:25;;;;;;;0.70;0.70;;;2.40;99.90;;;;;;5015795;28;20039;-82
2022/12/09 09:01:50;;;;;;;0.70;0.70;;;2.50;99.90;;;;;;5008899;28;20075;-79
2022/12/09 09:04:18;;;;;;;0.70;0.70;;;2.30;99.90;;;;;;5013171;28;20890;-81
2022/12/09 09:06:48;;;;;;;0.70;0.70;;;2.20;99.90;;;;;;5016060;28;20654;-82
2022/12/09 09:09:14;;;;;;;0.70;0.70;;;2.30;99.90;;;;;;5007487;28;20063;-82
2022/12/09 09:11:42;;;;;;;0.70;0.70;;;2.50;99.90;;;;;;5013633;28;20977;-80
2022/12/09 09:14:09;;;;;;;0.70;0.70;;;2.40;99.90;;;;;;5013174;28;20435;-81
2022/12/09 09:16:39;;;;;;;0.70;0.70;;;2.30;99.90;;;;;;5022122;28;20833;-80
2022/12/09 09:19:05;;;;;;;0.70;0.70;;;2.50;99.90;;;;;;5018108;28;20826;-81
2022/12/09 09:21:31;;;;;;;0.70;0.70;;;2.50;99.90;;;;;;5014880;28;20044;-81
2022/12/09 09:23:57;;;;;;;0.70;0.70;;;2.50;99.90;;;;;;5018618;28;20051;-80
2022/12/09 09:26:26;;;;;;;0.70;0.70;;;2.60;99.90;;;;;;5018519;28;20070;-81
2022/12/09 09:28:53;;;;;;;0.70;0.70;;;2.70;99.90;;;;;;5015965;28;22087;-82
2022/12/09 09:31:21;;;;;;;0.70;0.70;;;2.60;99.90;;;;;;4992798;28;20070;-80
2022/12/09 09:33:48;;;;;;;0.70;0.70;;;2.60;99.90;;;;;;5016991;28;20060;-80
2022/12/09 09:36:21;;;;;;;0.70;0.70;;;2.80;99.90;;;;;;5015312;28;20043;-80
2022/12/09 09:38:52;;;;;;;0.70;0.70;;;2.80;99.90;;;;;;5020227;28;20939;-79
2022/12/09 09:41:41;;;;;;;0.70;0.70;;;2.80;99.90;;;;;;5019186;28;20098;-81
2022/12/09 09:44:37;;;;;;;0.80;0.80;;;2.70;99.90;;;;;;4995373;28;20546;-80
2022/12/09 09:47:25;;;;;;;0.70;0.70;;;2.90;99.90;;;;;;5018564;28;20562;-81
2022/12/09 09:50:22;;;;;;;0.70;0.70;;;2.80;99.90;;;;;;5012961;28;20043;-82
2022/12/09 09:52:52;;;;;;;0.60;0.60;;;2.90;99.90;;;;;;4980925;28;20431;-84
2022/12/09 09:55:23;;;;;;;0.70;0.70;;;3.00;99.90;;;;;;5016909;28;20058;-83
2022/12/09 09:57:59;;;;;;;0.70;0.70;;;3.00;99.90;;;;;;5019259;28;20517;-83
2022/12/09 10:00:55;;;;;;;0.70;0.70;;;3.00;99.90;;;;;;5004784;28;20508;-82
2022/12/09 10:03:35;;;;;;;0.70;0.70;;;3.10;99.90;;;;;;5002441;28;20857;-81
2022/12/09 10:06:21;;;;;;;0.70;0.70;;;3.00;99.90;;;;;;5018920;28;20593;-81
2022/12/09 10:09:10;;;;;;;0.70;0.70;;;3.20;99.90;;;;;;5015825;28;21008;-82
2022/12/09 10:11:54;;;;;;;0.70;0.70;;;3.30;99.90;;;;;;4992377;28;20112;-82
2022/12/09 10:14:56;;;;;;;0.70;0.70;;;3.30;99.90;;;;;;5021150;28;20800;-82
2022/12/09 10:17:30;;;;;;;0.70;0.70;;;3.30;99.90;;;;;;4997873;27;20572;-81
2022/12/09 10:20:04;;;;;;;0.70;0.70;;;3.40;99.90;;;;;;5003575;28;20059;-82
2022/12/09 10:22:43;;;;;;;0.80;0.80;;;3.50;99.90;;;;;;5044489;27;20031;-80
2022/12/09 10:25:37;;;;;;;0.70;0.70;;;3.40;99.90;;;;;;5023216;28;20054;-81
2022/12/09 10:28:23;;;;;;;0.70;0.70;;;3.50;99.90;;;;;;5000708;28;20081;-82
2022/12/09 10:30:50;;;;;;;0.70;0.70;;;3.60;99.90;;;;;;5016044;28;20367;-81
2022/12/09 10:33:19;;;;;;;0.70;0.70;;;3.60;99.90;;;;;;5019107;28;20048;-78
2022/12/09 10:35:45;;;;;;;0.70;0.70;;;3.50;99.90;;;;;;5017928;28;20483;-82
2022/12/09 10:38:14;;;;;;;0.70;0.70;;;3.50;99.90;;;;;;4994415;28;20410;-80
2022/12/09 10:40:49;;;;;;;0.70;0.70;;;3.60;99.90;;;;;;5016823;28;20052;-81
2022/12/09 10:43:33;;;;;;;0.70;0.70;;;3.60;99.90;;;;;;5017371;28;20043;-82
2022/12/09 10:46:01;;;;;;;0.70;0.70;;;3.60;99.90;;;;;;5018656;28;20551;-82
2022/12/09 10:48:28;;;;;;;0.60;0.60;;;3.60;99.90;;;;;;4991423;28;20051;-80
2022/12/09 10:51:04;;;;;;;0.70;0.70;;;3.60;99.90;;;;;;4997328;28;20966;-81
2022/12/09 10:53:32;;;;;;;0.77;0.77;;;3.70;99.90;;;;;;5016637;28;20126;-83
2022/12/09 10:56:00;;;;;;;0.70;0.70;;;3.70;99.90;;;;;;5018481;28;20526;-81
2022/12/09 10:58:28;;;;;;;0.70;0.70;;;3.70;99.90;;;;;;5016551;28;20051;-81
2022/12/09 11:01:10;;;;;;;0.70;0.70;;;3.80;99.90;;;;;;5016548;28;20815;-82
2022/12/09 11:03:46;;;;;;;0.70;0.70;;;3.80;99.90;;;;;;5018300;28;21061;-81
2022/12/09 11:06:22;;;;;;;0.70;0.70;;;3.80;99.90;;;;;;5017838;28;20889;-82
2022/12/09 11:09:00;;;;;;;0.60;0.60;;;3.80;99.90;;;;;;5010396;28;21006;-81
2022/12/09 11:11:47;;;;;;;0.70;0.70;;;3.90;99.90;;;;;;5018441;28;20440;-82
2022/12/09 11:14:32;;;;;;;0.70;0.70;;;3.90;99.90;;;;;;4999090;28;20124;-81
2022/12/09 11:17:13;;;;;;;0.77;0.77;;;3.90;99.90;;;;;;5016848;28;20804;-82
2022/12/09 11:19:39;;;;;;;0.70;0.70;;;3.80;99.90;;;;;;5014782;28;20840;-81
2022/12/09 11:22:41;;;;;;;0.70;0.70;;;3.80;99.90;;;;;;5018875;28;20049;-82
2022/12/09 11:25:27;;;;;;;0.70;0.70;;;3.80;99.90;;;;;;5015325;28;20405;-84
2022/12/09 11:27:59;;;;;;;0.70;0.70;;;3.80;99.90;;;;;;5015735;28;20050;-81
2022/12/09 11:30:40;;;;;;;0.70;0.70;;;3.90;99.90;;;;;;5014741;28;20105;-81
2022/12/09 11:33:22;;;;;;;0.70;0.70;;;3.90;99.90;;;;;;5003383;28;20717;-81
2022/12/09 11:35:47;;;;;;;0.70;0.70;;;4.10;99.90;;;;;;5016197;28;20071;-81
2022/12/09 11:38:29;;;;;;;0.70;0.70;;;4.00;99.90;;;;;;5015514;28;20138;-81
2022/12/09 11:41:11;;;;;;;5.72;5.18;;;4.00;99.90;;;;;;5014444;28;20059;-82
2022/12/09 11:43:54;;;;;;;0.68;0.68;;;4.00;99.90;;;;;;5013014;28;20435;-83
2022/12/09 11:46:27;;;;;;;0.70;0.70;;;4.10;99.90;;;;;;5014896;28;20039;-81
2022/12/09 11:49:13;;;;;;;0.70;0.70;;;4.00;99.90;;;;;;5016034;28;20043;-82
2022/12/09 11:51:41;;;;;;;0.70;0.70;;;4.10;99.90;;;;;;5010112;27;20834;-80
2022/12/09 11:54:48;;;;;;;0.70;0.70;;;4.10;99.90;;;;;;5016540;28;20476;-81
2022/12/09 11:57:35;;;;;;;0.70;0.70;;;4.20;99.90;;;;;;5011029;28;20516;-81
2022/12/09 12:00:06;;;;;;;0.73;0.73;;;4.20;99.90;;;;;;5018584;28;20148;-81
2022/12/09 12:03:04;;;;;;;0.65;0.65;;;4.10;99.90;;;;;;5014246;27;20098;-82
2022/12/09 12:05:37;;;;;;;0.60;0.60;;;4.10;99.90;;;;;;4998924;28;20067;-81
2022/12/09 12:08:15;;;;;;;;;;;4.00;99.90;;;;;;5015571;27;20086;-81
2022/12/09 12:10:49;;;;;;;0.70;0.70;;;4.00;99.90;;;;;;5017840;28;19919;-82
2022/12/09 12:13:49;;;;;;;0.65;0.65;;;4.10;99.90;;;;;;5006786;28;20043;-82
2022/12/09 12:16:36;;;;;;;0.70;0.70;;;4.10;99.90;;;;;;5008172;28;20059;-80
2022/12/09 12:19:14;;;;;;;0.70;0.70;;;4.10;99.90;;;;;;4987007;28;20105;-83
2022/12/09 12:22:06;;;;;;;0.65;0.65;;;4.10;99.90;;;;;;5013996;28;20382;-81
2022/12/09 12:24:41;;;;;;;0.70;0.70;;;4.10;99.90;;;;;;5018541;28;20051;-82
2022/12/09 12:27:25;;;;;;;0.70;0.70;;;4.10;99.90;;;;;;5016056;28;20128;-82
2022/12/09 12:30:16;;;;;;;0.70;0.70;;;4.00;99.90;;;;;;5019389;28;20059;-81
2022/12/09 12:33:24;;;;;;;0.60;0.60;;;4.10;99.90;;;;;;5014255;28;20980;-81
2022/12/09 12:36:11;;;;;;;0.70;0.70;;;4.10;99.90;;;;;;4999342;28;20797;-83
2022/12/09 12:38:51;;;;;;;0.70;0.70;;;4.10;99.90;;;;;;5007150;28;20054;-81
2022/12/09 12:41:26;;;;;;;0.70;0.70;;;4.20;99.90;;;;;;5009537;28;20093;-82
2022/12/09 12:46:42;;;;;;;0.60;0.60;;;4.10;99.90;;;;;;5015694;28;20047;-82
2022/12/09 12:49:39;;;;;;;0.70;0.70;;;4.00;99.90;;;;;;5012300;28;20662;-82
2022/12/09 12:52:26;;;;;;;0.70;0.70;;;4.10;99.90;;;;;;4995818;28;20055;-81
2022/12/09 12:55:16;;;;;;;0.70;0.70;;;4.00;99.90;;;;;;5016746;28;20121;-81
2022/12/09 12:58:30;;;;;;;0.70;0.70;;;4.00;99.90;;;;;;5018269;28;20734;-81
2022/12/09 13:01:29;;;;;;;0.70;0.70;;;4.00;99.90;;;;;;5016819;28;20055;-80
2022/12/09 13:04:37;;;;;;;0.70;0.70;;;4.00;99.90;;;;;;5014284;28;20067;-81
2022/12/09 13:07:23;;;;;;;0.73;0.73;;;4.00;99.90;;;;;;4897283;28;20053;-81
2022/12/09 13:09:58;;;;;;;0.77;0.77;;;3.90;99.90;;;;;;5012262;28;20047;-82
2022/12/09 13:15:16;;;;;;;0.70;0.70;;;3.80;99.90;;;;;;5013519;28;20557;-81
2022/12/09 13:17:45;;;;;;;0.70;0.70;;;3.80;99.90;;;;;;5016563;28;20094;-82
2022/12/09 13:20:23;;;;;;;0.70;0.70;;;3.80;99.90;;;;;;5015862;28;20148;-80
2022/12/09 13:22:56;;;;;;;0.70;0.70;;;3.80;99.90;;;;;;5015547;28;20094;-81
2022/12/09 13:25:47;;;;;;;0.70;0.70;;;3.90;99.90;;;;;;5009937;28;20470;-80
2022/12/09 13:28:23;;;;;;;0.70;0.70;;;3.90;99.90;;;;;;5015925;28;20597;-81